Virginia Beach, VA (23457)

3:54 AM EDT on August 22, 2014 (GMT -0400)
Creeds / Blossom Hill | Change Station
CLOSE
Current Station
Personal Weather Station
Location: Virginia Beach, VA
Elevation: 16 ft
Nearby Weather Stations

Elev 16 ft 36.63 °N, 76.04 °W | Updated 2 seconds ago

Mostly Cloudy
Mostly Cloudy
75.6 °F
Feels Like 75 °F
N
2.3
Wind Variable Wind from NW
Gusts 0.0 mph

Today
High -- | Low -- °F
--% Chance of Precip.
Yesterday
High -- | Low -- °F
Precip. -- in
6:27 AM 7:46 PM
Waning Crescent, 9% visible
Pressure 29.97 in
Visibility 10.0 miles
Clouds Mostly Cloudy 12000 ft
Heat Index 75 °F
Dew Point 73 °F
Humidity 92%
Rainfall 0.00 in
Snow Depth Not available.
UV 0.0 out of 12
Pollen 8.60 out of 12
Ozone Good
PM2.5 Moderate
Flu Activity Not available.
METAR KNFE 220656Z AUTO 00000KT 10SM BKN120 27/23 A2996 RMK AO2 SLP147 T02670233

More Conditions Fewer Conditions

Pressure 29.97 in
Visibility 10.0 miles
Clouds Mostly Cloudy 12000 ft
Heat Index 75 °F
Dew Point 73 °F
Humidity 92%
Rainfall 0.00 in
Snow Depth Not available.
UV 0.0 out of 12
Pollen 8.60 out of 12
Ozone Good
PM2.5 Moderate
Flu Activity Not available.
METAR KNFE 220656Z AUTO 00000KT 10SM BKN120 27/23 A2996 RMK AO2 SLP147 T02670233

More Conditions Fewer Conditions

10-Day Weather Forecast

Almanac

Astronomy

Aug. 22, 2014 Rise Set
Actual Time 6:27 AM EDT 7:46 PM EDT
Civil Twilight 6:00 AM EDT 8:13 PM EDT
Nautical Twilight 5:28 AM EDT 8:45 PM EDT
Astronomical Twilight 4:54 AM EDT 9:18 PM EDT
Moon 3:50 AM EDT 5:51 PM EDT
Length of Visible Light 14h 12m
Length of Day
13h 18m
Tomorrow will be 2m 9s shorter.
Waning Crescent, 9% of the Moon is Illuminated
Today
Waning Crescent
Aug 25
New
Sep 2
First Quarter
Sep 8
Full
Sep 15
Last Quarter

Today's Extremes

State Highs State Lows

Community

WunderPhotos

Upload Photos

1,746,131 photos uploaded!

Nearby

Air Quality

  Air Quality AQ Index Pollutant
Yesterday Good
OZONE
Yesterday Good
PM2.5
Current Moderate
PM2.5
Current Good
OZONE
Friday Good
OZONE
Friday Good
PM2.5

Snow Depth

Station Depth Elevation
No new snow has been reported.

Earthquake Activity

City Distance Mag. Time & Date
No recent earthquake activity has been reported nearby.
Minimum magnitude displayed is 2.5.

Coastal Water Temperatures

Place Temperature
Duck Pier, NC 78.1 °F
Oregon Inlet Marina, NC 82.9 °F
Money Point, VA 87.1 °F
Sewells Point, VA 80.1 °F
Chesapeake Bay Bridge Tunnel, VA 79.0 °F

Nearby Weather Stations